Terminal Aerodrome Forecast
Issued by NWS Milwaukee/Sullivan, WI

Home | Current Version | Previous Version | Text Only | Print | Product List | Glossary On
Versions: 1 2 3 4 5 6 7 8 9 10 11 12 13 14 15 16 17 18 19 20 21 22 23 24 25 26 27 28 29 30 31 32 33 34 35 36 37 38 39 40 41 42 43 44 45 46 47
000
FTUS43 KMKX 051136
TAFMSN
TAF
KMSN 051136Z 0512/0612 08009KT 6SM SHRA SCT025 OVC040
     FM051300 08011KT 5SM SHRA BKN025 OVC035
     FM051500 09012G20KT 6SM SHRA BR SCT015 OVC025
     FM051700 09012G21KT 6SM BR VCSH OVC035
     FM051900 09012G21KT 6SM BR VCTS OVC030CB
     FM052200 09011G18KT P6SM OVC025
     FM060000 09010KT 6SM BR OVC015
     FM060300 09006KT 4SM BR OVC008=

USA.gov is the U.S. government's official web portal to all federal, state and local government web resources and services.